To NAV CANADA Home Page Login to a new session Search on AWWS site Feedback and Comments Disclaimer Vers la page française équivalente Tips FAQ What's new on the site To the Forecasts and Observations / NOTAM section To "File a Flight Plan" website Publications and other links Update of the User's profile FIC Telephone Numbers My Weather Data Folder Route Weather Data Regional Weather Data Local Weather Data To the Forecasts and Observations / NOTAM section
Request Generated 03/04/2015 at 18:42:52 UTC . Weather information available at that time is displayed.

METAR/TAF

GOOSE BAY/NL    

SPECI CYYR 041837Z 04004KT 7SM -SN BKN025 M15/M21 A2943 RMK SC6 SLP974=
METAR CYYR 041800Z 00000KT 4SM -SN OVC028 M17/M22 A2947 RMK SC7 SLP985=
SPECI CYYR 041742Z 36003KT 4SM -SN OVC028 M17/M22 A2948 RMK SC7 SLP989=
METAR CYYR 041700Z 36003KT 3SM -SHSN OVC023 M18/M24 A2952 RMK SC7 SLP002=
SPECI CYYR 041649Z 35003KT 3SM -SHSN OVC023 M18/M24 A2953 RMK SC7 SLP006=
METAR CYYR 041600Z 04002KT 4SM -SHSN OVC028 M19/M25 A2956 RMK SC7 SLP017=

TAF CYYR 041730Z 0418/0518 VRB03KT 6SM -SN SCT020 OVC040 TEMPO
0418/0502 2SM -SN OVC020
BECMG 0418/0420 20008KT
FM050200 VRB03KT 6SM -SN SCT020 OVC040 TEMPO 0502/0508 3SM -SN
OVC020
BECMG 0505/0507 26010KT
FM050800 25015G25KT P6SM OVC030 TEMPO 0508/0518 3SM -SHSN
RMK NXT FCST BY 050000Z=
Your time UTC time
Weather data provided by Environment Canada and NAV CANADA